Time;durP1;ratioP1;P1;durP2;ratioP2;P2;SDS_P1;SDS_P2;PMS_P1;PMS_P2;Temp;Humidity;BMP_temperature;BMP_pressure;BME280_temperature;BME280_humidity;BME280_pressure;Samples;Min_cycle;Max_cycle;Signal;HPM_P1;HPM_P2
2022/10/09 00:00:50;;;;;;;8.27;3.05;;;;;;;;;;4999738;28;20033;-80
2022/10/09 00:03:16;;;;;;;10.60;3.20;;;;;;;;;;5015346;28;20038;-83
2022/10/09 00:05:45;;;;;;;7.28;2.90;;;;;;;;;;4999710;28;20037;-81
2022/10/09 00:08:10;;;;;;;6.82;2.80;;;;;;;;;;5014696;28;20477;-82
2022/10/09 00:10:42;;;;;;;11.73;2.97;;;;;;;;;;5014924;28;20025;-82
2022/10/09 00:13:08;;;;;;;7.43;2.42;;;;;;;;;;4998603;28;20404;-81
2022/10/09 00:15:40;;;;;;;3.55;2.75;;;;;;;;;;5015309;28;20033;-82
2022/10/09 00:18:06;;;;;;;6.43;2.72;;;;;;;;;;5014768;28;20042;-82
2022/10/09 00:20:36;;;;;;;3.55;2.50;;;;;;;;;;5014444;28;20476;-83
2022/10/09 00:23:01;;;;;;;4.47;2.45;;;;;;;;;;5015836;28;20095;-83
2022/10/09 00:25:27;;;;;;;4.30;2.60;;;;;;;;;;5014643;28;20038;-83
2022/10/09 00:27:52;;;;;;;4.80;2.60;;;;;;;;;;4997495;28;20042;-83
2022/10/09 00:30:17;;;;;;;3.55;2.42;;;;;;;;;;5014588;28;20045;-83
2022/10/09 00:32:43;;;;;;;5.85;2.63;;;;;;;;;;5014170;28;20034;-82
2022/10/09 00:35:08;;;;;;;5.65;2.65;;;;;;;;;;5014494;28;20037;-82
2022/10/09 00:37:33;;;;;;;3.50;2.40;;;;;;;;;;5014658;28;20484;-82
2022/10/09 00:39:59;;;;;;;4.22;2.60;;;;;;;;;;5014768;28;20542;-82
2022/10/09 00:42:25;;;;;;;3.90;2.70;;;;;;;;;;5013926;28;20038;-82
2022/10/09 00:44:53;;;;;;;3.40;2.55;;;;;;;;;;5016027;28;20116;-82
2022/10/09 00:47:39;;;;;;;4.47;2.60;;;;;;;;;;5014049;28;20137;-82
2022/10/09 00:50:37;;;;;;;7.95;2.70;;;;;;;;;;4998165;28;20034;-83
2022/10/09 00:53:02;;;;;;;5.90;2.47;;;;;;;;;;5016507;28;20064;-82
2022/10/09 00:55:29;;;;;;;4.03;2.38;;;;;;;;;;5014526;28;20026;-82
2022/10/09 00:57:56;;;;;;;4.97;3.00;;;;;;;;;;5013944;28;20022;-82
2022/10/09 01:00:22;;;;;;;3.75;2.50;;;;;;;;;;5014227;28;20460;-82
2022/10/09 01:02:47;;;;;;;3.45;2.47;;;;;;;;;;5014207;28;20041;-82
2022/10/09 01:05:13;;;;;;;4.15;2.60;;;;;;;;;;5013656;28;20037;-82
2022/10/09 01:07:48;;;;;;;4.80;2.50;;;;;;;;;;5013857;28;20116;-82
2022/10/09 01:10:48;;;;;;;4.40;2.63;;;;;;;;;;4997169;28;20026;-82
2022/10/09 01:13:19;;;;;;;3.92;2.60;;;;;;;;;;5014750;28;20108;-82
2022/10/09 01:15:56;;;;;;;4.70;2.70;;;;;;;;;;5013853;28;20033;-82
2022/10/09 01:18:45;;;;;;;3.50;2.50;;;;;;;;;;5014680;28;20029;-82
2022/10/09 01:21:33;;;;;;;3.92;2.45;;;;;;;;;;5013585;28;20061;-82
2022/10/09 01:24:08;;;;;;;4.95;3.10;;;;;;;;;;5013242;28;20044;-82
2022/10/09 01:27:01;;;;;;;4.15;2.65;;;;;;;;;;5013340;28;20398;-81
2022/10/09 01:29:33;;;;;;;5.07;2.70;;;;;;;;;;5014555;28;20096;-82
2022/10/09 01:31:59;;;;;;;3.83;2.60;;;;;;;;;;5013439;28;20045;-82
2022/10/09 01:34:25;;;;;;;5.63;2.75;;;;;;;;;;5014337;28;20034;-83
2022/10/09 01:36:51;;;;;;;4.25;2.50;;;;;;;;;;4997253;28;20505;-83
2022/10/09 01:39:19;;;;;;;5.28;2.95;;;;;;;;;;4996967;28;20033;-82
2022/10/09 01:41:46;;;;;;;6.82;2.67;;;;;;;;;;5012975;28;20033;-82
2022/10/09 01:44:26;;;;;;;3.85;3.00;;;;;;;;;;4996448;28;20029;-83
2022/10/09 01:46:52;;;;;;;4.55;2.60;;;;;;;;;;5012760;28;20041;-82
2022/10/09 01:49:36;;;;;;;4.78;2.58;;;;;;;;;;4996798;28;20038;-82
2022/10/09 01:52:39;;;;;;;5.45;2.78;;;;;;;;;;5012820;28;20034;-82
2022/10/09 01:55:26;;;;;;;4.85;2.90;;;;;;;;;;5014090;28;20068;-82
2022/10/09 01:58:31;;;;;;;4.95;3.10;;;;;;;;;;5013371;28;20042;-82
2022/10/09 02:01:04;;;;;;;3.45;2.42;;;;;;;;;;5012292;28;20034;-82
2022/10/09 02:03:31;;;;;;;6.47;2.70;;;;;;;;;;5012426;28;20053;-82
2022/10/09 02:05:57;;;;;;;3.85;2.75;;;;;;;;;;5013819;28;20492;-82
2022/10/09 02:08:23;;;;;;;6.30;2.92;;;;;;;;;;5012725;28;20036;-82
2022/10/09 02:10:51;;;;;;;6.03;2.88;;;;;;;;;;5014003;28;20040;-81
2022/10/09 02:13:17;;;;;;;8.10;3.10;;;;;;;;;;5014064;28;20038;-82
2022/10/09 02:15:48;;;;;;;4.57;2.90;;;;;;;;;;5012518;28;20099;-83
2022/10/09 02:18:18;;;;;;;4.43;2.58;;;;;;;;;;5012725;28;20022;-83
2022/10/09 02:20:47;;;;;;;6.05;3.00;;;;;;;;;;5012596;28;20132;-82
2022/10/09 02:23:14;;;;;;;5.57;2.80;;;;;;;;;;4996134;28;20026;-83
2022/10/09 02:25:39;;;;;;;4.10;2.67;;;;;;;;;;4995987;28;20031;-82
2022/10/09 02:28:05;;;;;;;5.82;3.00;;;;;;;;;;5012712;28;20029;-82
2022/10/09 02:30:40;;;;;;;4.35;3.00;;;;;;;;;;4995813;28;20512;-82
2022/10/09 02:33:06;;;;;;;4.03;2.65;;;;;;;;;;5012281;28;20022;-82
2022/10/09 02:35:31;;;;;;;5.10;2.90;;;;;;;;;;5012448;28;20400;-82
2022/10/09 02:37:56;;;;;;;4.57;2.53;;;;;;;;;;5012327;28;20501;-82
2022/10/09 02:40:22;;;;;;;4.18;2.78;;;;;;;;;;5012395;28;20583;-82
2022/10/09 02:42:48;;;;;;;3.70;2.60;;;;;;;;;;4979368;28;20033;-82
2022/10/09 02:45:13;;;;;;;3.63;2.35;;;;;;;;;;5013126;28;20096;-83
2022/10/09 02:47:38;;;;;;;9.35;2.80;;;;;;;;;;5012242;28;20050;-82
2022/10/09 02:50:04;;;;;;;3.55;2.65;;;;;;;;;;5013028;28;20052;-82
2022/10/09 02:52:30;;;;;;;5.38;2.85;;;;;;;;;;5011345;28;20034;-82
2022/10/09 02:54:55;;;;;;;4.20;2.90;;;;;;;;;;5011948;28;20033;-82
2022/10/09 02:57:20;;;;;;;5.32;2.67;;;;;;;;;;5012986;28;20037;-82
2022/10/09 02:59:46;;;;;;;3.90;2.50;;;;;;;;;;5011739;28;20385;-83
2022/10/09 03:02:11;;;;;;;12.75;2.90;;;;;;;;;;5014304;28;20065;-83
2022/10/09 03:04:36;;;;;;;4.93;2.67;;;;;;;;;;4995252;28;20128;-82
2022/10/09 03:07:02;;;;;;;4.07;2.60;;;;;;;;;;5012773;28;20030;-82
2022/10/09 03:09:28;;;;;;;7.00;3.03;;;;;;;;;;5013066;28;20030;-82
2022/10/09 03:11:53;;;;;;;3.85;2.53;;;;;;;;;;5013294;28;20030;-82
2022/10/09 03:14:18;;;;;;;6.78;2.47;;;;;;;;;;5013084;28;20385;-82
2022/10/09 03:16:44;;;;;;;9.73;2.60;;;;;;;;;;5011973;28;20109;-81
2022/10/09 03:19:09;;;;;;;5.75;2.90;;;;;;;;;;5011751;28;20034;-82
2022/10/09 03:21:34;;;;;;;3.88;2.67;;;;;;;;;;5013135;28;20555;-82
2022/10/09 03:24:00;;;;;;;9.13;2.90;;;;;;;;;;5011454;28;20037;-82
2022/10/09 03:26:26;;;;;;;4.43;2.58;;;;;;;;;;5012741;28;20030;-82
2022/10/09 03:28:53;;;;;;;4.50;2.47;;;;;;;;;;5011783;28;20038;-82
2022/10/09 03:31:20;;;;;;;3.70;2.83;;;;;;;;;;4979296;28;20516;-82
2022/10/09 03:33:45;;;;;;;3.53;2.38;;;;;;;;;;5012891;28;20022;-82
2022/10/09 03:36:11;;;;;;;4.88;2.80;;;;;;;;;;5011814;28;20494;-82
2022/10/09 03:38:37;;;;;;;3.58;2.47;;;;;;;;;;4995370;28;20468;-82
2022/10/09 03:41:03;;;;;;;5.50;2.63;;;;;;;;;;5011662;28;20048;-82
2022/10/09 03:43:29;;;;;;;3.90;2.35;;;;;;;;;;5011900;28;20435;-82
2022/10/09 03:45:55;;;;;;;4.68;2.40;;;;;;;;;;4994941;28;20029;-82
2022/10/09 03:48:20;;;;;;;3.35;2.28;;;;;;;;;;5011327;28;20053;-82
2022/10/09 03:50:46;;;;;;;3.33;2.40;;;;;;;;;;5012508;28;20438;-82
2022/10/09 03:53:12;;;;;;;4.95;2.20;;;;;;;;;;5012679;28;20069;-82
2022/10/09 03:55:38;;;;;;;5.85;2.70;;;;;;;;;;4994854;28;20489;-82
2022/10/09 03:58:03;;;;;;;2.95;2.15;;;;;;;;;;5011519;28;20018;-81
2022/10/09 04:00:29;;;;;;;3.72;2.17;;;;;;;;;;4994735;28;20441;-82
2022/10/09 04:02:54;;;;;;;3.80;2.28;;;;;;;;;;5011800;28;20037;-82
2022/10/09 04:05:20;;;;;;;4.25;2.50;;;;;;;;;;4998249;28;20450;-83
2022/10/09 04:07:45;;;;;;;5.85;2.70;;;;;;;;;;5015033;28;20022;-83
2022/10/09 04:10:11;;;;;;;3.15;2.53;;;;;;;;;;5014807;28;20030;-83
2022/10/09 04:12:36;;;;;;;4.18;2.50;;;;;;;;;;5014598;28;20128;-83
2022/10/09 04:15:02;;;;;;;3.70;2.30;;;;;;;;;;5016035;28;20026;-84
2022/10/09 04:17:28;;;;;;;5.20;2.40;;;;;;;;;;5014878;28;20034;-84
2022/10/09 04:19:53;;;;;;;5.63;2.08;;;;;;;;;;5015747;28;20114;-83
2022/10/09 04:22:18;;;;;;;3.95;2.30;;;;;;;;;;5015706;28;20484;-83
2022/10/09 04:24:44;;;;;;;3.20;2.03;;;;;;;;;;5015984;28;20029;-83
2022/10/09 04:27:09;;;;;;;3.45;2.15;;;;;;;;;;5015736;28;20083;-84
2022/10/09 04:29:34;;;;;;;4.25;2.20;;;;;;;;;;4998856;28;20442;-83
2022/10/09 04:32:00;;;;;;;3.60;2.30;;;;;;;;;;5014421;28;20034;-83
2022/10/09 04:34:25;;;;;;;3.28;2.13;;;;;;;;;;5014664;28;20041;-82
2022/10/09 04:36:51;;;;;;;4.57;2.25;;;;;;;;;;4999008;28;20168;-83
2022/10/09 04:39:16;;;;;;;4.10;2.15;;;;;;;;;;5015520;28;20041;-83
2022/10/09 04:41:41;;;;;;;5.68;2.45;;;;;;;;;;5015166;28;20041;-83
2022/10/09 04:44:07;;;;;;;4.32;2.55;;;;;;;;;;5013995;28;20088;-82
2022/10/09 04:46:32;;;;;;;2.33;1.83;;;;;;;;;;5000865;28;20030;-83
2022/10/09 04:48:57;;;;;;;3.47;2.20;;;;;;;;;;5014049;28;20058;-83
2022/10/09 04:51:23;;;;;;;2.83;1.98;;;;;;;;;;5030559;28;20044;-83
2022/10/09 04:53:48;;;;;;;5.10;2.20;;;;;;;;;;5013933;28;20112;-83
2022/10/09 04:56:16;;;;;;;4.18;2.22;;;;;;;;;;4997532;28;20520;-83
2022/10/09 04:58:42;;;;;;;3.83;1.98;;;;;;;;;;4997685;28;20053;-83
2022/10/09 05:01:18;;;;;;;3.70;2.15;;;;;;;;;;4997374;28;20099;-83
2022/10/09 05:03:43;;;;;;;3.88;2.28;;;;;;;;;;5013537;28;20058;-83
2022/10/09 05:06:10;;;;;;;4.72;2.30;;;;;;;;;;5013691;28;20084;-83
2022/10/09 05:08:36;;;;;;;4.93;2.17;;;;;;;;;;5013942;28;20030;-82
2022/10/09 05:11:10;;;;;;;5.32;2.08;;;;;;;;;;5013424;28;20025;-82
2022/10/09 05:13:38;;;;;;;5.55;2.15;;;;;;;;;;4997139;28;20407;-83
2022/10/09 05:16:06;;;;;;;4.07;2.20;;;;;;;;;;5013249;28;20045;-83
2022/10/09 05:18:32;;;;;;;4.43;2.08;;;;;;;;;;5016132;28;20030;-83
2022/10/09 05:20:57;;;;;;;2.92;2.10;;;;;;;;;;5015408;28;20045;-83
2022/10/09 05:23:23;;;;;;;3.38;2.03;;;;;;;;;;5015253;28;20038;-82
2022/10/09 05:26:00;;;;;;;2.95;2.00;;;;;;;;;;5015559;28;20132;-84
2022/10/09 05:28:26;;;;;;;5.18;2.33;;;;;;;;;;5013622;28;20405;-83
2022/10/09 05:30:51;;;;;;;3.33;2.08;;;;;;;;;;5014495;28;20124;-83
2022/10/09 05:33:17;;;;;;;4.90;2.40;;;;;;;;;;4997580;28;20026;-83
2022/10/09 05:35:56;;;;;;;3.13;1.95;;;;;;;;;;5014678;28;20029;-83
2022/10/09 05:38:23;;;;;;;2.45;1.92;;;;;;;;;;5031058;28;20064;-83
2022/10/09 05:40:50;;;;;;;5.72;2.00;;;;;;;;;;4998614;28;20040;-83
2022/10/09 05:43:16;;;;;;;4.97;1.95;;;;;;;;;;4997372;28;20083;-83
2022/10/09 05:45:41;;;;;;;4.10;1.98;;;;;;;;;;5016046;28;20030;-83
2022/10/09 05:48:07;;;;;;;5.70;1.80;;;;;;;;;;5031057;28;20331;-83
2022/10/09 05:50:32;;;;;;;5.18;1.98;;;;;;;;;;5014197;28;20100;-83
2022/10/09 05:52:57;;;;;;;5.90;2.00;;;;;;;;;;5014938;28;20049;-83
2022/10/09 05:55:24;;;;;;;6.15;2.42;;;;;;;;;;4981124;28;20038;-83
2022/10/09 05:57:51;;;;;;;2.40;2.13;;;;;;;;;;5013786;28;20058;-86
2022/10/09 06:00:17;;;;;;;2.72;2.20;;;;;;;;;;5014560;28;20024;-82
2022/10/09 06:02:42;;;;;;;4.00;1.90;;;;;;;;;;5013953;28;20038;-83
2022/10/09 06:05:08;;;;;;;5.47;2.08;;;;;;;;;;5014273;28;20057;-81
2022/10/09 06:07:33;;;;;;;5.13;2.70;;;;;;;;;;5013502;28;20476;-81
2022/10/09 06:09:58;;;;;;;7.28;2.50;;;;;;;;;;5013399;28;20499;-83
2022/10/09 06:12:24;;;;;;;10.93;2.60;;;;;;;;;;5013907;28;20037;-80
2022/10/09 06:14:49;;;;;;;9.98;2.75;;;;;;;;;;5014592;28;20032;-81
2022/10/09 06:17:15;;;;;;;9.82;3.00;;;;;;;;;;5013989;28;20302;-79
2022/10/09 06:19:40;;;;;;;5.43;2.63;;;;;;;;;;5013214;28;20034;-79
2022/10/09 06:22:05;;;;;;;6.90;3.15;;;;;;;;;;5013342;28;20112;-79
2022/10/09 06:24:31;;;;;;;6.70;3.00;;;;;;;;;;5012552;28;20038;-78
2022/10/09 06:26:57;;;;;;;9.25;2.95;;;;;;;;;;5013826;28;20030;-79
2022/10/09 06:29:22;;;;;;;5.50;2.85;;;;;;;;;;4996188;28;20092;-78
2022/10/09 06:31:47;;;;;;;9.10;3.20;;;;;;;;;;5013760;28;20026;-79
2022/10/09 06:34:13;;;;;;;7.10;2.95;;;;;;;;;;5012409;28;20083;-79
2022/10/09 06:36:38;;;;;;;8.68;2.90;;;;;;;;;;5013711;28;20041;-80
2022/10/09 06:39:06;;;;;;;6.10;2.80;;;;;;;;;;5012465;28;20030;-80
2022/10/09 06:41:32;;;;;;;6.13;2.90;;;;;;;;;;5012601;28;20041;-80
2022/10/09 06:44:00;;;;;;;6.88;2.63;;;;;;;;;;4997501;28;20030;-81
2022/10/09 06:46:31;;;;;;;8.52;3.13;;;;;;;;;;5013038;28;20021;-79
2022/10/09 06:49:01;;;;;;;7.95;2.75;;;;;;;;;;5014022;28;20108;-80
2022/10/09 06:51:27;;;;;;;8.75;3.08;;;;;;;;;;5015329;28;20040;-80
2022/10/09 06:53:54;;;;;;;4.90;2.65;;;;;;;;;;5012921;28;20041;-81
2022/10/09 06:56:21;;;;;;;4.63;2.75;;;;;;;;;;5012814;28;20029;-80
2022/10/09 06:58:47;;;;;;;5.40;2.80;;;;;;;;;;5029058;28;20044;-79
2022/10/09 07:01:18;;;;;;;6.78;2.45;;;;;;;;;;4980474;28;20503;-80
2022/10/09 07:03:46;;;;;;;5.90;2.63;;;;;;;;;;5013046;28;20048;-79
2022/10/09 07:06:16;;;;;;;3.78;2.35;;;;;;;;;;5011895;28;20394;-80
2022/10/09 07:08:44;;;;;;;7.18;2.80;;;;;;;;;;4997331;28;20030;-79
2022/10/09 07:11:14;;;;;;;5.95;2.60;;;;;;;;;;5012790;28;20071;-80
2022/10/09 07:13:41;;;;;;;8.50;2.70;;;;;;;;;;5013393;28;20053;-80
2022/10/09 07:16:07;;;;;;;7.75;2.80;;;;;;;;;;5012393;28;20037;-80
2022/10/09 07:18:33;;;;;;;9.82;2.53;;;;;;;;;;5012554;28;20049;-79
2022/10/09 07:21:06;;;;;;;8.18;2.83;;;;;;;;;;5028353;28;20448;-81
2022/10/09 07:23:32;;;;;;;3.97;2.13;;;;;;;;;;5012522;28;20048;-81
2022/10/09 07:25:58;;;;;;;7.25;2.70;;;;;;;;;;5013773;28;20054;-81
2022/10/09 07:28:25;;;;;;;7.43;2.63;;;;;;;;;;5012225;28;20030;-80
2022/10/09 07:30:51;;;;;;;8.45;2.85;;;;;;;;;;4996814;28;20033;-80
2022/10/09 07:33:16;;;;;;;11.73;2.33;;;;;;;;;;5011800;28;20038;-81
2022/10/09 07:35:42;;;;;;;10.07;2.63;;;;;;;;;;5012022;28;20337;-81
2022/10/09 07:38:07;;;;;;;6.03;2.50;;;;;;;;;;4997359;28;20061;-81
2022/10/09 07:40:33;;;;;;;4.88;2.58;;;;;;;;;;5019116;28;20033;-81
2022/10/09 07:42:59;;;;;;;4.63;2.50;;;;;;;;;;5018112;28;20030;-81
2022/10/09 07:45:25;;;;;;;5.07;2.40;;;;;;;;;;5016643;28;20026;-80
2022/10/09 07:47:50;;;;;;;4.13;2.22;;;;;;;;;;5017182;28;20108;-80
2022/10/09 07:50:15;;;;;;;7.47;2.70;;;;;;;;;;5016139;28;20456;-81
2022/10/09 07:52:41;;;;;;;5.68;2.45;;;;;;;;;;5017690;28;20056;-81
2022/10/09 07:55:06;;;;;;;7.47;2.40;;;;;;;;;;5015632;28;20370;-81
2022/10/09 07:57:32;;;;;;;7.25;2.00;;;;;;;;;;5017710;28;20093;-81
2022/10/09 07:59:57;;;;;;;6.45;2.35;;;;;;;;;;5002237;28;20114;-80
2022/10/09 08:02:22;;;;;;;7.50;2.30;;;;;;;;;;4999530;28;20037;-80
2022/10/09 08:04:48;;;;;;;10.80;2.40;;;;;;;;;;5015814;28;20037;-80
2022/10/09 08:07:13;;;;;;;8.00;2.45;;;;;;;;;;5016648;28;20519;-80
2022/10/09 08:09:39;;;;;;;8.38;2.35;;;;;;;;;;5017533;28;20037;-80
2022/10/09 08:12:04;;;;;;;5.68;2.33;;;;;;;;;;5016032;28;20534;-81
2022/10/09 08:14:30;;;;;;;9.80;2.28;;;;;;;;;;5017518;28;20094;-80
2022/10/09 08:16:55;;;;;;;7.20;2.58;;;;;;;;;;4998715;28;20480;-79
2022/10/09 08:19:21;;;;;;;9.55;2.30;;;;;;;;;;5017765;28;20041;-80
2022/10/09 08:21:46;;;;;;;4.85;2.00;;;;;;;;;;5016155;28;20066;-79
2022/10/09 08:24:12;;;;;;;5.45;2.10;;;;;;;;;;5015167;28;20038;-80
2022/10/09 08:26:37;;;;;;;6.97;2.30;;;;;;;;;;5015938;28;20030;-79
2022/10/09 08:29:03;;;;;;;6.95;2.30;;;;;;;;;;5015956;28;20388;-79
2022/10/09 08:31:30;;;;;;;7.13;2.45;;;;;;;;;;5015397;28;20036;-80
2022/10/09 08:33:57;;;;;;;5.68;2.17;;;;;;;;;;4999469;28;20064;-80
2022/10/09 08:36:24;;;;;;;5.00;2.20;;;;;;;;;;5016482;28;20025;-80
2022/10/09 08:38:50;;;;;;;7.65;2.08;;;;;;;;;;4997882;28;20430;-80
2022/10/09 08:41:37;;;;;;;5.60;2.20;;;;;;;;;;4998831;28;20129;-80
2022/10/09 08:44:10;;;;;;;8.85;2.75;;;;;;;;;;5016067;28;20462;-80
2022/10/09 08:47:09;;;;;;;6.72;2.38;;;;;;;;;;5014772;28;20033;-80
2022/10/09 08:49:46;;;;;;;9.55;2.28;;;;;;;;;;5014413;28;20607;-79
2022/10/09 08:52:16;;;;;;;10.55;2.53;;;;;;;;;;5015655;28;20034;-79
2022/10/09 08:54:42;;;;;;;7.15;2.28;;;;;;;;;;4997160;28;20037;-79
2022/10/09 08:57:13;;;;;;;7.95;2.80;;;;;;;;;;4997888;28;20029;-79
2022/10/09 08:59:39;;;;;;;11.60;2.75;;;;;;;;;;4997774;28;20103;-78
2022/10/09 09:02:20;;;;;;;9.20;2.42;;;;;;;;;;5014338;28;20509;-79
2022/10/09 09:05:27;;;;;;;11.65;2.10;;;;;;;;;;5013654;28;20037;-79
2022/10/09 09:07:52;;;;;;;7.22;2.50;;;;;;;;;;5014071;28;20049;-79
2022/10/09 09:10:30;;;;;;;7.90;2.25;;;;;;;;;;5014284;28;20107;-80
2022/10/09 09:13:09;;;;;;;8.38;2.25;;;;;;;;;;5014775;28;20030;-79
2022/10/09 09:15:59;;;;;;;8.13;2.72;;;;;;;;;;5014713;28;20026;-79
2022/10/09 09:18:51;;;;;;;4.03;2.10;;;;;;;;;;5017803;28;20026;-79
2022/10/09 09:21:40;;;;;;;7.07;2.20;;;;;;;;;;5015130;28;20033;-79
2022/10/09 09:24:11;;;;;;;6.50;2.67;;;;;;;;;;5015757;28;20029;-79
2022/10/09 09:26:37;;;;;;;5.45;2.20;;;;;;;;;;5016374;28;20100;-79
2022/10/09 09:29:04;;;;;;;5.88;2.17;;;;;;;;;;5017465;28;20473;-78
2022/10/09 09:31:35;;;;;;;6.93;2.33;;;;;;;;;;5002398;28;20053;-78
2022/10/09 09:34:10;;;;;;;3.55;1.95;;;;;;;;;;5017569;28;20034;-79
2022/10/09 09:36:54;;;;;;;5.13;2.20;;;;;;;;;;5019234;28;20025;-79
2022/10/09 09:39:24;;;;;;;4.78;1.98;;;;;;;;;;5022135;28;20018;-79
2022/10/09 09:41:51;;;;;;;3.15;2.05;;;;;;;;;;5015751;28;20064;-77
2022/10/09 09:44:16;;;;;;;7.13;2.35;;;;;;;;;;4983307;28;20388;-79
2022/10/09 09:46:42;;;;;;;6.78;2.17;;;;;;;;;;5016960;28;20026;-79
2022/10/09 09:49:19;;;;;;;6.07;2.42;;;;;;;;;;5012757;28;20042;-79
2022/10/09 09:51:44;;;;;;;6.55;2.10;;;;;;;;;;4997629;28;20069;-80
2022/10/09 09:54:22;;;;;;;7.75;2.20;;;;;;;;;;5016211;28;20099;-79
2022/10/09 09:56:48;;;;;;;4.00;1.92;;;;;;;;;;5014996;28;20026;-79
2022/10/09 09:59:32;;;;;;;10.02;2.30;;;;;;;;;;4996853;28;20025;-79
2022/10/09 10:02:03;;;;;;;6.10;2.20;;;;;;;;;;4996721;28;20030;-78
2022/10/09 10:04:28;;;;;;;5.60;2.00;;;;;;;;;;5014321;28;20048;-78
2022/10/09 10:06:54;;;;;;;9.50;2.10;;;;;;;;;;4997362;28;20022;-79
2022/10/09 10:09:19;;;;;;;10.15;2.47;;;;;;;;;;5013438;28;20384;-79
2022/10/09 10:11:59;;;;;;;9.45;2.13;;;;;;;;;;5029921;28;20040;-79
2022/10/09 10:14:26;;;;;;;7.20;1.90;;;;;;;;;;5013966;28;20540;-79
2022/10/09 10:16:54;;;;;;;7.85;1.95;;;;;;;;;;4998276;28;20037;-78
2022/10/09 10:19:22;;;;;;;9.93;2.05;;;;;;;;;;5013245;28;20046;-78
2022/10/09 10:22:05;;;;;;;5.72;2.03;;;;;;;;;;5013430;28;20508;-78
2022/10/09 10:24:42;;;;;;;5.97;2.15;;;;;;;;;;5012701;28;20433;-80
2022/10/09 10:27:25;;;;;;;7.38;2.00;;;;;;;;;;4995944;28;20026;-80
2022/10/09 10:29:55;;;;;;;7.07;2.23;;;;;;;;;;5012359;28;20121;-80
2022/10/09 10:32:26;;;;;;;6.60;2.10;;;;;;;;;;5011504;28;20278;-80
2022/10/09 10:34:57;;;;;;;9.38;2.30;;;;;;;;;;4996029;28;20061;-80
2022/10/09 10:37:28;;;;;;;7.28;2.05;;;;;;;;;;5012386;28;20053;-80
2022/10/09 10:40:00;;;;;;;6.45;2.10;;;;;;;;;;5013629;28;20088;-81
2022/10/09 10:42:50;;;;;;;5.80;2.10;;;;;;;;;;5012608;28;20029;-80
2022/10/09 10:45:21;;;;;;;6.35;1.90;;;;;;;;;;5012370;28;20388;-81
2022/10/09 10:47:52;;;;;;;4.22;1.80;;;;;;;;;;5012785;28;20491;-81
2022/10/09 10:50:19;;;;;;;10.75;2.55;;;;;;;;;;5012691;28;20503;-82
2022/10/09 10:52:53;;;;;;;6.97;2.05;;;;;;;;;;5014868;28;20117;-80
2022/10/09 10:55:29;;;;;;;8.10;1.88;;;;;;;;;;5014205;28;20022;-80
2022/10/09 10:58:18;;;;;;;7.22;2.00;;;;;;;;;;5012723;28;20026;-79
2022/10/09 11:00:58;;;;;;;5.80;1.77;;;;;;;;;;5011852;28;20032;-79
2022/10/09 11:03:42;;;;;;;13.95;2.10;;;;;;;;;;5011776;28;20025;-80
2022/10/09 11:06:30;;;;;;;11.90;2.40;;;;;;;;;;5013248;28;20029;-79
2022/10/09 11:09:05;;;;;;;9.73;2.42;;;;;;;;;;5011938;28;20480;-79
2022/10/09 11:11:51;;;;;;;7.72;2.35;;;;;;;;;;5012608;28;20026;-78
2022/10/09 11:14:39;;;;;;;10.30;1.98;;;;;;;;;;4994528;28;20041;-81
2022/10/09 11:17:37;;;;;;;14.35;2.90;;;;;;;;;;5013506;28;20030;-77
2022/10/09 11:20:30;;;;;;;10.77;2.17;;;;;;;;;;5014173;28;20030;-78
2022/10/09 11:23:04;;;;;;;8.45;2.15;;;;;;;;;;5014206;28;20380;-78
2022/10/09 11:25:49;;;;;;;9.73;2.47;;;;;;;;;;4995985;28;20069;-79
2022/10/09 11:28:18;;;;;;;11.70;2.92;;;;;;;;;;4996119;28;20132;-80
2022/10/09 11:30:53;;;;;;;12.88;2.78;;;;;;;;;;5014607;28;20030;-78
2022/10/09 11:33:37;;;;;;;9.98;3.10;;;;;;;;;;4995803;28;20072;-79
2022/10/09 11:36:18;;;;;;;14.55;2.80;;;;;;;;;;5012430;28;20068;-79
2022/10/09 11:39:05;;;;;;;11.93;2.95;;;;;;;;;;5011758;28;20025;-79
2022/10/09 11:41:31;;;;;;;10.25;3.03;;;;;;;;;;5011642;28;20026;-78
2022/10/09 11:44:13;;;;;;;11.48;2.90;;;;;;;;;;4996145;28;20038;-78
2022/10/09 11:46:50;;;;;;;9.10;2.50;;;;;;;;;;5011136;28;20034;-80
2022/10/09 11:49:20;;;;;;;17.17;2.88;;;;;;;;;;5013674;28;20038;-79
2022/10/09 11:52:24;;;;;;;9.07;2.38;;;;;;;;;;5010921;28;20171;-79
2022/10/09 11:54:49;;;;;;;9.80;2.40;;;;;;;;;;5017617;28;20088;-79
2022/10/09 11:57:28;;;;;;;6.80;2.40;;;;;;;;;;5011536;28;20388;-79
2022/10/09 12:00:08;;;;;;;9.88;2.40;;;;;;;;;;4995599;28;20033;-80
2022/10/09 12:02:35;;;;;;;7.57;2.67;;;;;;;;;;5010778;28;20061;-79
2022/10/09 12:05:00;;;;;;;8.40;2.70;;;;;;;;;;4994394;28;20109;-79
2022/10/09 12:07:36;;;;;;;7.05;2.92;;;;;;;;;;4978248;28;20138;-79
2022/10/09 12:10:05;;;;;;;11.88;2.95;;;;;;;;;;5010551;28;20026;-79
2022/10/09 12:12:31;;;;;;;6.63;3.08;;;;;;;;;;4994472;28;20117;-80
2022/10/09 12:14:57;;;;;;;7.80;2.90;;;;;;;;;;5011003;28;20507;-79
2022/10/09 12:17:22;;;;;;;7.75;2.53;;;;;;;;;;5010359;28;20053;-80
2022/10/09 12:19:53;;;;;;;9.82;2.80;;;;;;;;;;5010145;28;20084;-79
2022/10/09 12:22:19;;;;;;;12.95;3.10;;;;;;;;;;5010605;28;20030;-79
2022/10/09 12:24:54;;;;;;;7.28;2.90;;;;;;;;;;5012383;28;20025;-79
2022/10/09 12:27:38;;;;;;;7.05;2.90;;;;;;;;;;5014012;28;20436;-79
2022/10/09 12:30:09;;;;;;;8.15;2.78;;;;;;;;;;5013767;28;20415;-78
2022/10/09 12:32:37;;;;;;;8.57;2.45;;;;;;;;;;5015579;28;20069;-78
2022/10/09 12:35:25;;;;;;;9.52;2.88;;;;;;;;;;5013700;28;20083;-79
2022/10/09 12:37:51;;;;;;;9.80;2.40;;;;;;;;;;5013547;28;20022;-79
2022/10/09 12:40:25;;;;;;;11.60;2.50;;;;;;;;;;4997099;28;20037;-79
2022/10/09 12:42:52;;;;;;;8.13;2.38;;;;;;;;;;5013426;28;20403;-79
2022/10/09 12:45:21;;;;;;;8.88;2.90;;;;;;;;;;5013016;28;20405;-79
2022/10/09 12:47:47;;;;;;;6.38;2.42;;;;;;;;;;5013115;28;20038;-79
2022/10/09 12:50:15;;;;;;;9.00;2.72;;;;;;;;;;5014975;28;20129;-79
2022/10/09 12:52:48;;;;;;;10.65;2.47;;;;;;;;;;5014329;28;20026;-79
2022/10/09 12:55:17;;;;;;;14.13;2.85;;;;;;;;;;5013093;28;20041;-79
2022/10/09 12:57:42;;;;;;;14.77;2.53;;;;;;;;;;5012996;28;20046;-78
2022/10/09 13:00:13;;;;;;;9.65;2.67;;;;;;;;;;4996279;28;20515;-78
2022/10/09 13:02:39;;;;;;;7.93;2.40;;;;;;;;;;5013977;28;20034;-79
2022/10/09 13:05:04;;;;;;;8.15;2.55;;;;;;;;;;5012906;28;20121;-79
2022/10/09 13:07:31;;;;;;;7.63;2.40;;;;;;;;;;5012654;28;20164;-79
2022/10/09 13:09:59;;;;;;;6.82;2.42;;;;;;;;;;5014741;28;20026;-78
2022/10/09 13:12:26;;;;;;;14.05;2.15;;;;;;;;;;5012933;28;20026;-78
2022/10/09 13:15:22;;;;;;;7.60;2.05;;;;;;;;;;5012496;28;20121;-80
2022/10/09 13:17:47;;;;;;;6.35;2.38;;;;;;;;;;5012471;28;20025;-78
2022/10/09 13:20:15;;;;;;;9.73;2.85;;;;;;;;;;5012619;28;20530;-79
2022/10/09 13:22:59;;;;;;;10.60;2.35;;;;;;;;;;5012463;28;20034;-79
2022/10/09 13:25:26;;;;;;;8.77;2.37;;;;;;;;;;4996174;28;20018;-78
2022/10/09 13:27:51;;;;;;;6.18;2.10;;;;;;;;;;5012487;28;20113;-78
2022/10/09 13:30:17;;;;;;;10.10;2.47;;;;;;;;;;4979572;28;20121;-78
2022/10/09 13:32:42;;;;;;;12.40;2.63;;;;;;;;;;4996000;28;20421;-79
2022/10/09 13:35:08;;;;;;;10.85;2.17;;;;;;;;;;5012180;28;20490;-79
2022/10/09 13:37:33;;;;;;;10.65;2.42;;;;;;;;;;5011676;28;20109;-78
2022/10/09 13:39:59;;;;;;;8.32;2.47;;;;;;;;;;5012057;28;20048;-77
2022/10/09 13:42:30;;;;;;;11.55;2.17;;;;;;;;;;5012072;28;20034;-78
2022/10/09 13:44:55;;;;;;;10.90;2.35;;;;;;;;;;5011900;28;20484;-77
2022/10/09 13:47:22;;;;;;;8.88;2.30;;;;;;;;;;4995546;28;20034;-78
2022/10/09 13:49:48;;;;;;;6.05;2.00;;;;;;;;;;5013622;28;20054;-77
2022/10/09 13:52:14;;;;;;;4.18;1.92;;;;;;;;;;5012055;28;20037;-78
2022/10/09 13:54:40;;;;;;;7.93;2.00;;;;;;;;;;5011973;28;20432;-77
2022/10/09 13:57:05;;;;;;;7.38;2.13;;;;;;;;;;5028524;28;20030;-77
2022/10/09 13:59:31;;;;;;;8.95;1.88;;;;;;;;;;4979220;28;20035;-78
2022/10/09 14:01:57;;;;;;;4.63;1.88;;;;;;;;;;5011997;28;20029;-78
2022/10/09 14:04:22;;;;;;;7.25;1.90;;;;;;;;;;5012194;28;20042;-77
2022/10/09 14:06:48;;;;;;;8.05;1.88;;;;;;;;;;5013022;28;20032;-77
2022/10/09 14:09:13;;;;;;;11.05;2.05;;;;;;;;;;5012897;28;20026;-78
2022/10/09 14:11:39;;;;;;;6.38;1.60;;;;;;;;;;5011741;28;20079;-78
2022/10/09 14:14:04;;;;;;;3.83;1.70;;;;;;;;;;5011803;28;20480;-78
2022/10/09 14:16:30;;;;;;;5.07;1.65;;;;;;;;;;4995368;28;20046;-78
2022/10/09 14:18:56;;;;;;;5.72;1.70;;;;;;;;;;4995237;28;20021;-78
2022/10/09 14:21:22;;;;;;;4.82;1.70;;;;;;;;;;5012111;28;20105;-78
2022/10/09 14:23:52;;;;;;;7.45;1.50;;;;;;;;;;4995297;28;20188;-78
2022/10/09 14:26:17;;;;;;;3.03;1.60;;;;;;;;;;5011455;28;20030;-79
2022/10/09 14:28:42;;;;;;;5.13;1.70;;;;;;;;;;4994754;28;20137;-78
2022/10/09 14:31:08;;;;;;;4.30;1.70;;;;;;;;;;5012757;28;20072;-77
2022/10/09 14:33:33;;;;;;;3.65;1.77;;;;;;;;;;5011346;28;20405;-79
2022/10/09 14:36:11;;;;;;;7.35;1.80;;;;;;;;;;5011398;28;20030;-80
2022/10/09 14:38:37;;;;;;;4.00;1.67;;;;;;;;;;5011345;28;20090;-80
2022/10/09 14:41:03;;;;;;;3.88;1.50;;;;;;;;;;5012567;28;20030;-78
2022/10/09 14:43:29;;;;;;;4.22;2.00;;;;;;;;;;5011165;28;20037;-78
2022/10/09 14:46:21;;;;;;;8.18;1.83;;;;;;;;;;5012307;28;20439;-79
2022/10/09 14:48:50;;;;;;;3.67;1.40;;;;;;;;;;5010807;28;20046;-79
2022/10/09 14:51:18;;;;;;;2.97;1.55;;;;;;;;;;5012250;28;20038;-79
2022/10/09 14:53:44;;;;;;;4.75;1.60;;;;;;;;;;5011012;28;20384;-78
2022/10/09 14:56:12;;;;;;;5.30;1.60;;;;;;;;;;5010909;28;20092;-79